Neder Vindinge, Denmark
Current Conditions -  °F | °C
As of 1:50 AM on Saturday 20 Dec 2014 (Local Time) from EKRK Reporting Station
Broken Clouds Broken Clouds  
Wind Chill: 30°   Ceiling: 13000
Heat Index: 39°   Visibility: 6mi
Dew Point: 34°   Wind: 18mph
Humidity: 81%   Direction: 250°WSW
Pressure: 29.56"   Gusts: NA
Location:  55.03°N, 11.88°E
Report Text: EKRK 200050Z AUTO 25016KT 9999NDV FEW036/// BKN130///BKN170/// 04/01 Q1001
Loading
Personal Weather Stations






























Interactive Weather Map New forecast layout! Learn more

10-Day Weather Forecast

Advertisements
Track Severe Weather on mobile